Time;durP1;ratioP1;P1;durP2;ratioP2;P2;SDS_P1;SDS_P2;PMS_P1;PMS_P2;Temp;Humidity;BMP_temperature;BMP_pressure;BME280_temperature;BME280_humidity;BME280_pressure;Samples;Min_cycle;Max_cycle;Signal;HPM_P1;HPM_P2
2020/12/25 00:01:19;;;;;;;7.17;4.53;;;;;;;;;;4863185;28;20189;-77
2020/12/25 00:03:43;;;;;;;5.43;3.73;;;3.90;99.90;;;;;;4859620;28;20194;-76
2020/12/25 00:06:07;;;;;;;4.40;3.43;;;3.90;99.90;;;;;;4866367;28;20190;-76
2020/12/25 00:08:30;;;;;;;3.80;2.87;;;;;;;;;;4844476;28;20194;-76
2020/12/25 00:10:53;;;;;;;3.53;3.10;;;4.00;99.90;;;;;;4856200;28;20274;-76
2020/12/25 00:14:03;;;;;;;3.73;3.17;;;3.90;99.90;;;;;;4868044;28;20212;-77
2020/12/25 00:16:26;;;;;;;4.27;3.40;;;;;;;;;;4835138;28;20335;-75
2020/12/25 00:18:58;;;;;;;3.73;3.33;;;4.10;99.90;;;;;;4858384;28;20214;-76
2020/12/25 00:21:23;;;;;;;3.73;3.33;;;3.70;99.90;;;;;;4874374;28;20202;-76
2020/12/25 00:23:46;;;;;;;3.30;3.00;;;;;;;;;;4859493;28;20614;-77
2020/12/25 00:26:09;;;;;;;4.53;2.93;;;3.90;99.90;;;;;;4860085;28;20185;-76
2020/12/25 00:28:32;;;;;;;5.07;3.80;;;4.00;99.90;;;;;;4861895;28;20222;-77
2020/12/25 00:30:55;;;;;;;4.53;3.90;;;;;;;;;;4852207;28;20213;-77
2020/12/25 00:33:18;;;;;;;4.63;3.80;;;;;;;;;;4861606;28;20193;-76
2020/12/25 00:35:43;;;;;;;3.20;2.90;;;4.00;99.90;;;;;;4854749;28;20199;-76
2020/12/25 00:38:07;;;;;;;3.33;3.00;;;4.00;99.90;;;;;;4863334;28;20186;-76
2020/12/25 00:40:30;;;;;;;3.27;2.97;;;;;;;;;;4853641;28;20201;-77
2020/12/25 00:42:55;;;;;;;3.87;2.93;;;;;;;;;;4859387;28;20636;-77
2020/12/25 00:45:19;;;;;;;3.33;3.03;;;;;;;;;;4867172;28;20196;-76
2020/12/25 00:47:42;;;;;;;3.93;3.50;;;;;;;;;;4865617;28;20253;-75
2020/12/25 00:50:05;;;;;;;3.43;2.93;;;;;;;;;;4859787;28;20619;-76
2020/12/25 00:52:28;;;;;;;4.10;3.17;;;4.20;99.90;;;;;;4859954;28;20214;-76
2020/12/25 00:54:51;;;;;;;4.30;3.40;;;4.00;99.90;;;;;;4867709;28;20198;-76
2020/12/25 00:57:15;;;;;;;3.73;3.30;;;;;;;;;;4866026;28;20193;-76
2020/12/25 00:59:54;;;;;;;2.83;2.60;;;;;;;;;;4894134;28;20287;-75
2020/12/25 01:02:17;;;;;;;3.13;2.83;;;;;;;;;;4856832;28;20249;-76
2020/12/25 01:04:40;;;;;;;2.93;2.53;;;;;;;;;;4859824;28;20200;-76
2020/12/25 01:07:05;;;;;;;3.27;2.90;;;4.00;99.90;;;;;;4857422;28;20552;-76
2020/12/25 01:09:28;;;;;;;3.57;2.90;;;;;;;;;;4849834;28;20194;-75
2020/12/25 01:11:52;;;;;;;4.23;3.23;;;4.00;99.90;;;;;;4859405;28;20206;-76
2020/12/25 01:14:14;;;;;;;3.37;2.90;;;4.00;99.90;;;;;;4859244;28;20201;-74
2020/12/25 01:16:37;;;;;;;4.23;3.23;;;;;;;;;;4856545;28;20193;-75
2020/12/25 01:18:59;;;;;;;4.20;3.77;;;4.00;99.90;;;;;;4866631;28;20177;-76
2020/12/25 01:21:22;;;;;;;3.90;3.60;;;;;;;;;;4860195;28;20198;-77
2020/12/25 01:23:49;;;;;;;3.80;3.40;;;4.10;99.90;;;;;;4863414;28;20189;-76
2020/12/25 01:26:15;;;;;;;4.27;3.67;;;;;;;;;;4858328;28;20182;-76
2020/12/25 01:28:40;;;;;;;4.13;3.73;;;4.10;99.90;;;;;;4880032;28;20212;-76
2020/12/25 01:31:04;;;;;;;4.07;3.67;;;;;;;;;;4888779;28;20299;-76
2020/12/25 01:33:27;;;;;;;4.53;3.67;;;4.10;99.90;;;;;;4866682;28;20186;-75
2020/12/25 01:35:50;;;;;;;4.63;3.73;;;4.10;99.90;;;;;;4884039;28;21003;-76
2020/12/25 01:38:13;;;;;;;3.70;3.33;;;;;;;;;;4874816;28;20185;-75
2020/12/25 01:40:37;;;;;;;3.83;3.43;;;;;;;;;;4885007;28;20184;-75
2020/12/25 01:43:00;;;;;;;4.37;3.47;;;;;;;;;;4862757;28;20205;-75
2020/12/25 01:45:25;;;;;;;5.47;3.50;;;4.10;99.90;;;;;;4880756;28;20234;-77
2020/12/25 01:47:48;;;;;;;6.53;4.30;;;;;;;;;;4883841;28;20220;-76
2020/12/25 01:50:12;;;;;;;5.30;4.23;;;3.90;99.90;;;;;;4884278;28;20210;-75
2020/12/25 01:52:37;;;;;;;4.50;3.57;;;4.10;99.90;;;;;;4866684;28;20256;-75
2020/12/25 01:55:00;;;;;;;4.33;3.60;;;;;;;;;;4886815;28;20184;-75
2020/12/25 01:57:24;;;;;;;4.17;3.77;;;4.10;99.90;;;;;;4882983;28;20944;-74
2020/12/25 01:59:47;;;;;;;4.17;3.77;;;4.10;99.90;;;;;;4883792;28;20678;-75
2020/12/25 02:02:17;;;;;;;5.43;4.23;;;4.20;99.90;;;;;;4862154;28;20279;-75
2020/12/25 02:04:39;;;;;;;4.63;4.23;;;;;;;;;;4866012;28;20197;-76
2020/12/25 02:07:02;;;;;;;4.23;3.83;;;;;;;;;;4860802;28;20194;-75
2020/12/25 02:09:24;;;;;;;4.17;3.73;;;4.60;99.90;;;;;;4881986;28;20178;-76
2020/12/25 02:11:47;;;;;;;3.30;3.00;;;;;;;;;;4881906;28;20240;-75
2020/12/25 02:14:10;;;;;;;3.80;3.40;;;;;;;;;;4881980;28;20243;-77
2020/12/25 02:16:35;;;;;;;3.63;3.10;;;4.10;99.90;;;;;;4883052;28;20186;-77
2020/12/25 02:19:01;;;;;;;3.53;3.23;;;4.10;99.90;;;;;;4881919;28;20189;-75
2020/12/25 02:21:24;;;;;;;3.00;2.70;;;4.10;99.90;;;;;;4881986;28;20260;-77
2020/12/25 02:23:47;;;;;;;3.47;3.17;;;;;;;;;;4880687;28;20189;-76
2020/12/25 02:26:10;;;;;;;3.50;3.13;;;4.00;99.90;;;;;;4882782;28;20181;-76
2020/12/25 02:28:33;;;;;;;3.30;3.00;;;;;;;;;;4881898;28;20249;-75
2020/12/25 02:30:55;;;;;;;3.67;3.27;;;4.10;99.90;;;;;;4845356;28;20218;-76
2020/12/25 02:33:18;;;;;;;3.33;2.80;;;;;;;;;;4861582;28;20268;-76
2020/12/25 02:35:41;;;;;;;2.93;2.73;;;;;;;;;;4866984;28;20217;-76
2020/12/25 02:38:04;;;;;;;2.97;2.67;;;4.00;99.90;;;;;;4881321;28;20241;-76
2020/12/25 02:40:29;;;;;;;2.70;2.50;;;3.80;99.90;;;;;;4881476;28;20414;-75
2020/12/25 02:42:53;;;;;;;2.80;2.60;;;4.00;99.90;;;;;;4863326;28;20244;-76
2020/12/25 02:45:19;;;;;;;2.37;2.17;;;;;;;;;;4880273;28;20220;-76
2020/12/25 02:47:41;;;;;;;2.87;2.67;;;4.00;99.90;;;;;;4883152;28;20211;-77
2020/12/25 02:50:07;;;;;;;3.20;2.80;;;;;;;;;;4882260;28;20352;-76
2020/12/25 02:52:29;;;;;;;3.00;2.70;;;;;;;;;;4881273;28;20616;-76
2020/12/25 02:54:55;;;;;;;2.77;2.57;;;3.90;99.90;;;;;;4878564;28;20278;-77
2020/12/25 02:57:17;;;;;;;2.93;2.63;;;;;;;;;;4899373;28;20188;-77
2020/12/25 02:59:40;;;;;;;2.90;2.63;;;;;;;;;;4899185;28;20188;-76
2020/12/25 03:02:02;;;;;;;3.57;3.20;;;;;;;;;;4895489;28;20188;-75
2020/12/25 03:04:32;;;;;;;3.40;3.10;;;;;;;;;;4859854;28;20197;-77
2020/12/25 03:06:55;;;;;;;3.87;3.53;;;;;;;;;;4881242;28;20189;-76
2020/12/25 03:09:17;;;;;;;4.43;3.67;;;;;;;;;;4878758;28;20311;-76
2020/12/25 03:11:41;;;;;;;3.50;3.20;;;3.70;99.90;;;;;;4890807;28;20216;-76
2020/12/25 03:14:04;;;;;;;4.00;3.30;;;3.70;99.90;;;;;;4889729;28;20185;-77
2020/12/25 03:16:27;;;;;;;3.87;3.50;;;4.10;99.90;;;;;;4896018;28;20194;-76
2020/12/25 03:18:50;;;;;;;3.53;3.23;;;3.60;99.90;;;;;;4886183;28;20180;-76
2020/12/25 03:21:13;;;;;;;3.00;2.70;;;;;;;;;;4881907;28;20189;-76
2020/12/25 03:23:35;;;;;;;3.30;3.00;;;;;;;;;;4885430;28;20186;-76
2020/12/25 03:25:58;;;;;;;3.17;2.93;;;;;;;;;;4888504;28;20279;-77
2020/12/25 03:28:21;;;;;;;2.93;2.73;;;3.70;99.90;;;;;;4888587;28;20271;-78
2020/12/25 03:30:44;;;;;;;3.13;2.93;;;3.90;99.90;;;;;;4872159;28;20618;-76
2020/12/25 03:33:07;;;;;;;3.13;2.87;;;;;;;;;;4890665;28;20216;-77
2020/12/25 03:35:30;;;;;;;3.07;2.83;;;;;;;;;;4887978;28;20263;-77
2020/12/25 03:37:53;;;;;;;3.00;2.77;;;3.60;99.90;;;;;;4896673;28;20232;-77
2020/12/25 03:40:17;;;;;;;3.60;3.17;;;;;;;;;;4891557;28;20185;-75
2020/12/25 03:42:40;;;;;;;2.93;2.63;;;;;;;;;;4870495;28;20221;-77
2020/12/25 03:45:03;;;;;;;2.57;2.37;;;3.80;97.30;;;;;;4889575;28;20188;-76
2020/12/25 03:47:26;;;;;;;3.33;3.03;;;3.70;98.40;;;;;;4881239;28;20180;-77
2020/12/25 03:49:49;;;;;;;3.17;2.87;;;;;;;;;;4891596;28;20234;-75
2020/12/25 03:52:12;;;;;;;3.13;2.87;;;;;;;;;;4886890;28;20217;-78
2020/12/25 03:54:34;;;;;;;3.63;3.33;;;;;;;;;;4890883;28;20188;-77
2020/12/25 03:56:57;;;;;;;4.40;3.70;;;;;;;;;;4856318;28;20185;-77
2020/12/25 03:59:20;;;;;;;3.73;3.43;;;;;;;;;;4879483;28;20236;-75
2020/12/25 04:01:44;;;;;;;5.13;3.60;;;3.80;99.90;;;;;;4865231;28;20231;-77
2020/12/25 04:04:06;;;;;;;3.07;2.77;;;;;;;;;;4872999;28;20189;-77
2020/12/25 04:06:29;;;;;;;3.17;2.90;;;;;;;;;;4878181;28;20186;-75
2020/12/25 04:08:51;;;;;;;3.73;3.10;;;3.90;99.90;;;;;;4851499;28;20644;-76
2020/12/25 04:11:16;;;;;;;2.97;2.77;;;3.80;99.90;;;;;;4883427;28;20295;-75
2020/12/25 04:13:39;;;;;;;3.23;2.63;;;;;;;;;;4892580;28;20249;-76
2020/12/25 04:16:01;;;;;;;3.47;3.17;;;;;;;;;;4888542;28;20193;-76
2020/12/25 04:18:25;;;;;;;3.60;2.87;;;3.80;99.90;;;;;;4880177;28;20193;-76
2020/12/25 04:20:49;;;;;;;3.30;3.00;;;;;;;;;;4872588;28;20209;-74
2020/12/25 04:23:11;;;;;;;2.83;2.63;;;;;;;;;;4908341;28;20259;-74
2020/12/25 04:25:34;;;;;;;2.93;2.63;;;;;;;;;;4871002;28;20178;-75
2020/12/25 04:27:56;;;;;;;3.37;3.07;;;;;;;;;;4887124;28;20220;-75
2020/12/25 04:30:19;;;;;;;2.70;2.50;;;3.90;99.00;;;;;;4879938;28;20193;-73
2020/12/25 04:32:42;;;;;;;2.70;2.50;;;;;;;;;;4886103;28;20217;-75
2020/12/25 04:35:05;;;;;;;4.10;2.90;;;3.90;95.40;;;;;;4888489;28;20212;-75
2020/12/25 04:37:28;;;;;;;2.97;2.70;;;;;;;;;;4882338;28;20196;-74
2020/12/25 04:39:52;;;;;;;2.90;2.70;;;3.90;81.60;;;;;;4895725;28;20231;-75
2020/12/25 04:42:17;;;;;;;3.53;3.23;;;3.80;74.60;;;;;;4895339;28;20234;-76
2020/12/25 04:44:40;;;;;;;3.90;3.60;;;;;;;;;;4884747;28;20276;-75
2020/12/25 04:47:09;;;;;;;4.07;3.77;;;3.80;85.40;;;;;;4887205;28;20192;-75
2020/12/25 04:49:33;;;;;;;4.00;3.70;;;6.30;90.50;;;;;;4882229;28;20416;-74
2020/12/25 04:51:57;;;;;;;4.10;3.80;;;3.80;91.80;;;;;;4883356;28;20205;-74
2020/12/25 04:54:23;;;;;;;4.93;4.40;;;3.50;97.40;;;;;;4891686;28;20192;-75
2020/12/25 04:56:46;;;;;;;3.90;3.60;;;;;;;;;;4881634;28;20186;-76
2020/12/25 04:59:09;;;;;;;3.63;3.33;;;3.70;92.80;;;;;;4887355;28;20247;-74
2020/12/25 05:01:32;;;;;;;3.80;3.50;;;3.80;92.10;;;;;;4889044;28;20282;-75
2020/12/25 05:03:55;;;;;;;3.47;3.17;;;3.70;92.40;;;;;;4879524;28;20182;-75
2020/12/25 05:06:20;;;;;;;3.33;3.03;;;3.70;90.40;;;;;;4886201;28;20246;-75
2020/12/25 05:08:47;;;;;;;3.43;3.13;;;3.70;85.40;;;;;;4874073;28;20221;-75
2020/12/25 05:11:12;;;;;;;4.27;3.57;;;3.70;88.80;;;;;;4880607;28;20209;-76
2020/12/25 05:13:40;;;;;;;4.73;3.87;;;3.80;93.60;;;;;;4889979;28;20188;-76
2020/12/25 05:16:02;;;;;;;3.07;2.87;;;;;;;;;;4889287;28;20189;-76
2020/12/25 05:18:25;;;;;;;3.00;2.80;;;;;;;;;;4886566;28;20180;-76
2020/12/25 05:20:54;;;;;;;3.80;3.13;;;3.70;94.00;;;;;;4877835;28;20193;-76
2020/12/25 05:23:17;;;;;;;3.27;2.97;;;;;;;;;;4886332;28;20200;-76
2020/12/25 05:25:41;;;;;;;4.47;4.07;;;4.20;93.50;;;;;;4885592;28;20188;-75
2020/12/25 05:28:12;;;;;;;4.57;4.17;;;3.70;93.60;;;;;;4870506;28;20229;-76
2020/12/25 05:30:34;;;;;;;3.80;3.50;;;;;;;;;;4864705;28;20201;-76
2020/12/25 05:33:01;;;;;;;4.00;3.60;;;3.70;93.20;;;;;;4877142;28;20243;-76
2020/12/25 05:35:26;;;;;;;9.93;7.63;;;3.70;94.20;;;;;;4882117;28;20719;-75
2020/12/25 05:37:49;;;;;;;4.67;4.20;;;3.70;95.00;;;;;;4891387;28;20647;-76
2020/12/25 05:40:12;;;;;;;3.77;3.47;;;;;;;;;;4878244;28;20217;-76
2020/12/25 05:42:50;;;;;;;4.37;3.97;;;3.90;99.90;;;;;;4877818;28;20545;-75
2020/12/25 05:45:23;;;;;;;4.10;3.70;;;3.70;96.20;;;;;;4863741;28;20205;-76
2020/12/25 05:48:13;;;;;;;3.80;3.50;;;3.70;96.90;;;;;;4881636;28;20178;-75
2020/12/25 05:50:45;;;;;;;3.93;3.63;;;3.70;93.40;;;;;;4879727;28;20249;-77
2020/12/25 05:53:08;;;;;;;3.63;3.33;;;3.70;93.80;;;;;;4893161;28;20258;-77
2020/12/25 05:55:31;;;;;;;3.20;3.00;;;;;;;;;;4889186;28;20243;-76
2020/12/25 05:57:55;;;;;;;3.43;3.13;;;3.70;93.50;;;;;;4893901;28;20223;-76
2020/12/25 06:00:18;;;;;;;4.00;3.57;;;3.70;93.70;;;;;;4885105;28;20212;-76
2020/12/25 06:02:41;;;;;;;3.37;3.07;;;;;;;;;;4886663;28;20189;-76
2020/12/25 06:05:04;;;;;;;3.23;2.97;;;3.60;94.00;;;;;;4893399;28;20187;-75
2020/12/25 06:07:30;;;;;;;3.43;3.13;;;3.60;94.40;;;;;;4861993;28;20756;-77
2020/12/25 06:09:58;;;;;;;3.80;3.40;;;3.70;96.50;;;;;;4879422;28;20201;-76
2020/12/25 06:12:27;;;;;;;4.97;4.47;;;3.50;93.60;;;;;;4880086;28;20224;-76
2020/12/25 06:14:54;;;;;;;5.00;4.50;;;3.40;93.60;;;;;;4877851;28;20674;-76
2020/12/25 06:17:22;;;;;;;5.73;5.20;;;3.50;93.90;;;;;;4888516;28;20220;-77
2020/12/25 06:19:51;;;;;;;5.53;5.03;;;3.30;99.90;;;;;;4880756;28;20243;-75
2020/12/25 06:22:32;;;;;;;6.03;5.13;;;3.30;99.90;;;;;;4867659;28;20197;-76
2020/12/25 06:24:59;;;;;;;6.23;5.30;;;3.20;99.80;;;;;;4874376;28;20197;-76
2020/12/25 06:27:26;;;;;;;6.27;5.50;;;3.30;94.90;;;;;;4887575;28;20236;-77
2020/12/25 06:29:53;;;;;;;5.80;5.07;;;3.30;94.90;;;;;;4868803;28;20229;-77
2020/12/25 06:32:18;;;;;;;5.83;4.53;;;3.30;95.50;;;;;;4884910;28;20213;-76
2020/12/25 06:34:44;;;;;;;5.37;4.73;;;3.20;95.20;;;;;;4880986;28;20947;-75
2020/12/25 06:37:09;;;;;;;5.43;4.93;;;2.90;95.30;;;;;;4871058;28;20565;-77
2020/12/25 06:39:31;;;;;;;5.47;4.60;;;3.20;99.90;;;;;;4887758;28;20217;-76
2020/12/25 06:42:01;;;;;;;4.93;4.43;;;3.10;96.00;;;;;;4888678;28;20736;-76
2020/12/25 06:44:25;;;;;;;4.80;4.30;;;;;;;;;;4890167;28;20212;-76
2020/12/25 06:46:48;;;;;;;4.57;4.10;;;3.10;96.80;;;;;;4888900;28;20196;-76
2020/12/25 06:49:15;;;;;;;5.17;4.67;;;3.10;97.30;;;;;;4871334;28;20209;-76
2020/12/25 06:51:41;;;;;;;5.67;5.03;;;3.10;97.00;;;;;;4883950;28;20646;-77
2020/12/25 06:54:04;;;;;;;5.47;4.90;;;;;;;;;;4864164;28;20217;-75
2020/12/25 06:56:27;;;;;;;6.93;5.47;;;3.20;99.90;;;;;;4867021;28;20710;-76
2020/12/25 06:58:53;;;;;;;8.43;6.30;;;3.20;99.80;;;;;;4889389;28;20196;-76
2020/12/25 07:01:17;;;;;;;6.87;6.10;;;3.30;99.90;;;;;;4886260;28;20193;-75
2020/12/25 07:03:41;;;;;;;10.27;7.30;;;3.40;99.90;;;;;;4878114;28;20560;-76
2020/12/25 07:06:07;;;;;;;7.07;6.37;;;3.50;99.90;;;;;;4892149;28;20185;-76
2020/12/25 07:08:31;;;;;;;9.00;6.93;;;3.40;99.90;;;;;;4892419;28;20185;-76
2020/12/25 07:11:04;;;;;;;8.00;6.80;;;3.30;99.90;;;;;;4900554;28;20212;-77
2020/12/25 07:13:27;;;;;;;10.63;8.70;;;3.60;99.90;;;;;;4883104;28;20654;-76
2020/12/25 07:15:50;;;;;;;10.53;7.97;;;;;;;;;;4866373;28;20604;-75
2020/12/25 07:18:13;;;;;;;8.57;7.27;;;;;;;;;;4894329;28;20640;-76
2020/12/25 07:20:35;;;;;;;8.37;7.43;;;3.80;99.90;;;;;;4885174;28;20577;-76
2020/12/25 07:22:59;;;;;;;9.90;8.60;;;3.80;99.90;;;;;;4882275;28;20231;-76
2020/12/25 07:25:21;;;;;;;10.87;9.27;;;;;;;;;;4883969;28;20194;-75
2020/12/25 07:27:45;;;;;;;11.70;9.43;;;3.80;99.90;;;;;;4894215;28;20228;-74
2020/12/25 07:30:08;;;;;;;9.90;8.33;;;;;;;;;;4865726;28;20221;-75
2020/12/25 07:32:31;;;;;;;9.53;7.67;;;3.90;97.40;;;;;;4880739;28;20221;-76
2020/12/25 07:34:54;;;;;;;10.83;8.53;;;4.00;95.80;;;;;;4890591;28;20181;-76
2020/12/25 07:37:17;;;;;;;10.60;8.33;;;;;;;;;;4872241;28;20189;-76
2020/12/25 07:39:41;;;;;;;12.97;8.93;;;4.10;93.40;;;;;;4871410;28;20205;-76
2020/12/25 07:42:03;;;;;;;13.47;10.20;;;4.10;92.80;;;;;;4885224;28;20205;-76
2020/12/25 07:44:27;;;;;;;12.23;10.27;;;4.00;92.80;;;;;;4891803;28;20190;-75
2020/12/25 07:46:52;;;;;;;16.30;11.13;;;4.20;99.60;;;;;;4891721;28;20194;-77
2020/12/25 07:49:15;;;;;;;16.30;11.70;;;;;;;;;;4889336;28;20272;-76
2020/12/25 07:51:37;;;;;;;14.00;11.53;;;3.60;91.40;;;;;;4891670;28;20259;-76
2020/12/25 07:54:02;;;;;;;17.80;12.13;;;4.30;99.00;;;;;;4883608;28;20231;-76
2020/12/25 07:56:28;;;;;;;14.57;10.83;;;4.60;99.90;;;;;;4895390;28;20213;-76
2020/12/25 07:58:52;;;;;;;10.97;8.83;;;4.60;93.60;;;;;;4886080;28;20238;-76
2020/12/25 08:01:16;;;;;;;9.10;7.17;;;4.50;85.60;;;;;;4883525;28;20186;-75
2020/12/25 08:03:39;;;;;;;8.63;7.30;;;4.70;85.40;;;;;;4889635;28;20199;-75
2020/12/25 08:06:02;;;;;;;6.33;5.53;;;;;;;;;;4880226;28;20251;-74
2020/12/25 08:08:25;;;;;;;7.67;6.57;;;5.00;79.80;;;;;;4880069;28;20251;-74
2020/12/25 08:10:48;;;;;;;7.47;5.90;;;5.00;77.60;;;;;;4885412;28;20220;-75
2020/12/25 08:13:15;;;;;;;7.20;5.87;;;5.10;72.10;;;;;;4879071;28;20205;-75
2020/12/25 08:15:43;;;;;;;8.37;6.23;;;5.10;60.30;;;;;;4879685;28;20204;-76
2020/12/25 08:18:07;;;;;;;8.40;6.57;;;;;;;;;;4879478;28;20196;-77
2020/12/25 08:20:29;;;;;;;8.90;6.90;;;;;;;;;;4877750;28;20548;-76
2020/12/25 08:22:59;;;;;;;7.93;7.00;;;5.30;33.60;;;;;;4893667;28;20270;-76
2020/12/25 08:25:21;;;;;;;6.83;5.57;;;;;;;;;;4878675;28;20193;-75
2020/12/25 08:27:45;;;;;;;4.30;3.90;;;5.20;49.00;;;;;;4884326;28;20228;-75
2020/12/25 08:30:09;;;;;;;6.57;4.27;;;5.20;53.70;;;;;;4861393;28;20198;-75
2020/12/25 08:32:32;;;;;;;4.53;3.53;;;;;;;;;;4877381;28;20290;-76
2020/12/25 08:35:09;;;;;;;5.40;4.87;;;5.40;50.10;;;;;;4859629;28;20240;-75
2020/12/25 08:37:32;;;;;;;6.33;5.57;;;;;;;;;;4859692;28;20352;-76
2020/12/25 08:39:55;;;;;;;6.97;5.90;;;5.50;42.60;;;;;;4879722;28;20185;-76
2020/12/25 08:42:20;;;;;;;8.97;6.07;;;5.90;45.40;;;;;;4887539;28;20196;-75
2020/12/25 08:44:56;;;;;;;6.53;5.43;;;6.30;26.60;;;;;;4860964;28;20206;-75
2020/12/25 08:47:19;;;;;;;9.33;6.33;;;5.90;26.70;;;;;;4880215;28;20195;-75
2020/12/25 08:49:42;;;;;;;9.40;7.03;;;5.80;34.70;;;;;;4881935;28;20184;-75
2020/12/25 08:52:20;;;;;;;7.30;6.53;;;5.70;42.00;;;;;;4878344;28;20239;-75
2020/12/25 08:54:56;;;;;;;8.17;6.50;;;5.80;40.00;;;;;;4891735;28;20807;-75
2020/12/25 08:57:19;;;;;;;7.70;6.00;;;5.80;44.30;;;;;;4880518;28;20238;-75
2020/12/25 08:59:41;;;;;;;5.57;4.80;;;;;;;;;;4890576;28;20271;-74
2020/12/25 09:02:04;;;;;;;5.50;4.23;;;5.70;46.60;;;;;;4878222;28;20185;-74
2020/12/25 09:04:28;;;;;;;4.20;3.67;;;5.90;45.50;;;;;;4870164;28;20207;-75
2020/12/25 09:06:51;;;;;;;5.03;4.27;;;5.90;44.30;;;;;;4885872;28;20208;-75
2020/12/25 09:09:17;;;;;;;4.30;3.80;;;6.00;46.00;;;;;;4877982;28;20264;-75
2020/12/25 09:11:40;;;;;;;4.70;4.17;;;;;;;;;;4877562;28;20192;-76
2020/12/25 09:14:04;;;;;;;6.30;5.40;;;6.00;44.20;;;;;;4876052;28;20217;-76
2020/12/25 09:16:28;;;;;;;5.63;5.10;;;6.10;54.10;;;;;;4875550;28;20275;-75
2020/12/25 09:18:51;;;;;;;4.77;4.13;;;;;;;;;;4872930;28;20193;-74
2020/12/25 09:21:16;;;;;;;6.50;5.47;;;6.00;45.80;;;;;;4870248;28;20185;-75
2020/12/25 09:23:39;;;;;;;5.73;5.00;;;6.00;28.70;;;;;;4875422;28;20200;-73
2020/12/25 09:26:05;;;;;;;4.10;3.70;;;6.00;31.40;;;;;;4878704;28;20185;-75
2020/12/25 09:28:28;;;;;;;7.03;6.33;;;5.90;29.30;;;;;;4863827;28;20283;-76
2020/12/25 09:30:50;;;;;;;10.87;9.23;;;;;;;;;;4880273;28;20200;-76
2020/12/25 09:33:14;;;;;;;7.37;6.27;;;5.80;44.00;;;;;;4874219;28;20245;-75
2020/12/25 09:35:37;;;;;;;7.13;6.37;;;;;;;;;;4893603;28;20256;-76
2020/12/25 09:38:01;;;;;;;7.00;6.30;;;5.70;36.90;;;;;;4876531;28;20197;-75
2020/12/25 09:40:24;;;;;;;4.73;4.13;;;;;;;;;;4859890;28;20281;-74
2020/12/25 09:42:47;;;;;;;5.13;4.63;;;5.10;54.50;;;;;;4875222;28;20188;-76
2020/12/25 09:45:10;;;;;;;6.07;5.40;;;5.50;50.90;;;;;;4871686;28;20224;-75
2020/12/25 09:47:32;;;;;;;4.93;4.33;;;5.60;54.00;;;;;;4877028;28;20188;-74
2020/12/25 09:50:05;;;;;;;7.70;6.30;;;5.50;40.40;;;;;;4855248;28;20221;-75
2020/12/25 09:52:27;;;;;;;8.60;7.67;;;5.50;48.80;;;;;;4842228;28;20229;-75
2020/12/25 09:55:01;;;;;;;7.27;6.53;;;6.20;57.70;;;;;;4869606;28;20613;-73
2020/12/25 09:57:34;;;;;;;8.10;7.23;;;5.30;67.70;;;;;;4837361;28;20660;-74
2020/12/25 09:59:57;;;;;;;9.10;7.73;;;5.80;56.50;;;;;;4870083;28;20263;-73
2020/12/25 10:02:20;;;;;;;6.83;5.50;;;6.20;67.20;;;;;;4862398;28;20483;-75
2020/12/25 10:04:46;;;;;;;5.60;4.90;;;5.50;55.60;;;;;;4864473;28;20198;-74
2020/12/25 10:07:24;;;;;;;5.90;4.20;;;6.20;47.10;;;;;;4859982;28;20312;-74
2020/12/25 10:09:51;;;;;;;7.10;5.37;;;6.30;41.70;;;;;;4880727;28;20682;-76
2020/12/25 10:12:15;;;;;;;7.90;6.63;;;6.10;27.80;;;;;;4858414;28;20597;-74
2020/12/25 10:14:42;;;;;;;8.20;6.63;;;;;;;;;;4882691;28;20223;-75
2020/12/25 10:17:11;;;;;;;5.43;4.43;;;6.40;28.00;;;;;;4841236;28;20241;-73
2020/12/25 10:19:35;;;;;;;5.73;4.60;;;6.40;38.90;;;;;;4839918;28;20683;-74
2020/12/25 10:21:57;;;;;;;5.60;4.93;;;;;;;;;;4860512;28;20213;-73
2020/12/25 10:24:20;;;;;;;5.23;4.73;;;6.30;19.60;;;;;;4874925;28;20283;-74
2020/12/25 10:26:50;;;;;;;6.00;5.37;;;6.20;15.20;;;;;;4839941;28;20194;-74
2020/12/25 10:29:19;;;;;;;7.40;6.07;;;6.30;16.50;;;;;;4858763;28;20218;-74
2020/12/25 10:31:50;;;;;;;6.30;5.27;;;6.10;15.30;;;;;;4844996;28;20260;-74
2020/12/25 10:34:15;;;;;;;5.53;4.90;;;6.00;30.70;;;;;;4846708;28;20218;-75
2020/12/25 10:37:42;;;;;;;7.13;6.43;;;5.90;29.40;;;;;;4886741;28;20303;-75
2020/12/25 10:40:07;;;;;;;6.83;5.07;;;5.60;27.90;;;;;;4888763;28;20196;-76
2020/12/25 10:42:31;;;;;;;5.73;5.13;;;6.20;18.70;;;;;;4884936;28;20186;-75
2020/12/25 10:44:56;;;;;;;6.23;5.60;;;6.20;21.60;;;;;;4884508;28;20181;-75
2020/12/25 10:47:19;;;;;;;5.67;4.87;;;;;;;;;;4887175;28;20182;-75
2020/12/25 10:49:42;;;;;;;5.90;5.17;;;6.30;24.10;;;;;;4882244;28;20280;-75
2020/12/25 10:52:05;;;;;;;4.77;4.17;;;6.30;27.20;;;;;;4878931;28;20190;-74
2020/12/25 10:54:28;;;;;;;5.30;4.27;;;6.50;24.60;;;;;;4851754;28;20218;-74
2020/12/25 10:56:51;;;;;;;5.33;4.83;;;;;;;;;;4869560;28;20188;-73
2020/12/25 10:59:14;;;;;;;7.07;5.03;;;6.30;13.70;;;;;;4870019;28;20190;-76
2020/12/25 11:01:38;;;;;;;5.43;4.87;;;6.30;14.50;;;;;;4881498;28;20190;-75
2020/12/25 11:04:01;;;;;;;4.97;4.43;;;3.20;9.40;;;;;;4887748;28;20185;-76
2020/12/25 11:06:31;;;;;;;4.90;4.07;;;6.30;6.30;;;;;;4865537;28;20567;-74
2020/12/25 11:08:53;;;;;;;6.23;5.17;;;;;;;;;;4880539;28;20209;-73
2020/12/25 11:11:23;;;;;;;6.23;4.90;;;6.30;1.00;;;;;;4883680;28;20185;-75
2020/12/25 11:13:47;;;;;;;5.80;4.63;;;;;;;;;;4858405;28;20494;-73
2020/12/25 11:16:11;;;;;;;5.90;4.60;;;6.30;1.00;;;;;;4863782;28;20631;-76
2020/12/25 11:18:38;;;;;;;6.50;4.30;;;6.30;3.60;;;;;;4882936;28;20185;-74
2020/12/25 11:21:01;;;;;;;4.47;4.03;;;;;;;;;;4880504;28;20239;-75
2020/12/25 11:23:24;;;;;;;4.83;4.43;;;;;;;;;;4874985;28;20190;-75
2020/12/25 11:25:48;;;;;;;5.10;4.60;;;;;;;;;;4883957;28;20189;-75
2020/12/25 11:28:14;;;;;;;6.93;5.33;;;6.20;18.60;;;;;;4878388;28;20304;-75
2020/12/25 11:30:37;;;;;;;6.93;5.70;;;;;;;;;;4884558;28;20192;-75
2020/12/25 11:33:00;;;;;;;4.80;4.30;;;;;;;;;;4890615;28;20384;-75
2020/12/25 11:35:24;;;;;;;4.57;4.17;;;6.30;25.80;;;;;;4880321;28;20180;-76
2020/12/25 11:37:46;;;;;;;5.63;5.07;;;;;;;;;;4884785;28;20215;-76
2020/12/25 11:40:15;;;;;;;6.20;4.70;;;6.40;22.90;;;;;;4858489;28;20232;-74
2020/12/25 11:42:38;;;;;;;5.13;4.30;;;6.70;9.00;;;;;;4880523;28;20189;-75
2020/12/25 11:45:01;;;;;;;4.40;4.00;;;6.50;1.00;;;;;;4877504;28;20193;-76
2020/12/25 11:47:24;;;;;;;4.73;4.30;;;;;;;;;;4871332;28;20593;-76
2020/12/25 11:50:05;;;;;;;4.77;3.90;;;6.40;1.00;;;;;;4876772;28;20206;-75
2020/12/25 11:52:32;;;;;;;5.47;4.70;;;7.50;1.00;;;;;;4890573;28;20191;-75
2020/12/25 11:54:55;;;;;;;5.83;4.77;;;;;;;;;;4864840;28;20267;-73
2020/12/25 11:57:18;;;;;;;4.43;4.03;;;6.50;1.00;;;;;;4873359;28;20182;-74
2020/12/25 11:59:41;;;;;;;5.13;4.30;;;;;;;;;;4881125;28;20193;-75
2020/12/25 12:02:04;;;;;;;5.00;4.47;;;;;;;;;;4876764;28;20184;-74
2020/12/25 12:07:03;;;;;;;4.73;4.13;;;;;;;;;;4874873;28;20651;-75
2020/12/25 12:09:27;;;;;;;6.43;5.27;;;6.10;1.00;;;;;;4878456;28;20205;-75
2020/12/25 12:11:50;;;;;;;5.20;4.70;;;;;;;;;;4884584;28;20670;-75
2020/12/25 12:14:12;;;;;;;8.30;6.47;;;;;;;;;;4881608;28;20271;-75
2020/12/25 12:16:35;;;;;;;10.83;8.50;;;5.90;1.00;;;;;;4882888;28;20419;-74
2020/12/25 12:18:58;;;;;;;5.73;4.80;;;;;;;;;;4867167;28;20221;-75
2020/12/25 12:21:21;;;;;;;8.13;6.80;;;5.80;1.00;;;;;;4872240;28;20196;-74
2020/12/25 12:23:44;;;;;;;8.57;7.37;;;5.60;2.30;;;;;;4877315;28;20706;-75
2020/12/25 12:26:09;;;;;;;9.23;8.17;;;5.70;8.60;;;;;;4885676;28;20178;-75
2020/12/25 12:28:32;;;;;;;8.77;7.20;;;;;;;;;;4882064;28;20225;-75
2020/12/25 12:30:55;;;;;;;13.63;10.60;;;5.60;18.30;;;;;;4883142;28;20263;-75
2020/12/25 12:33:19;;;;;;;16.27;12.07;;;5.50;19.90;;;;;;4885219;28;20196;-76
2020/12/25 12:35:42;;;;;;;16.53;13.00;;;;;;;;;;4888621;28;20283;-75
2020/12/25 12:38:05;;;;;;;13.30;9.97;;;;;;;;;;4887092;28;20208;-76
2020/12/25 12:40:27;;;;;;;16.93;13.23;;;;;;;;;;4881193;28;20286;-75
2020/12/25 12:42:51;;;;;;;13.50;11.23;;;5.60;28.20;;;;;;4880378;28;20288;-75
2020/12/25 12:45:14;;;;;;;20.53;15.60;;;;;;;;;;4878151;28;20236;-76
2020/12/25 12:47:36;;;;;;;17.00;12.93;;;;;;;;;;4874297;28;20268;-76
2020/12/25 12:49:59;;;;;;;13.63;11.47;;;;;;;;;;4861212;28;20190;-76
2020/12/25 12:52:22;;;;;;;23.00;16.90;;;5.70;26.90;;;;;;4879039;28;20217;-76
2020/12/25 12:54:44;;;;;;;19.60;15.13;;;;;;;;;;4877345;28;20287;-75
2020/12/25 12:57:07;;;;;;;16.77;12.50;;;5.60;25.70;;;;;;4883541;28;20725;-76
2020/12/25 12:59:31;;;;;;;11.60;8.70;;;5.50;24.70;;;;;;4877884;28;20706;-75
2020/12/25 13:01:54;;;;;;;16.93;11.27;;;6.90;11.90;;;;;;4873856;28;20262;-76
2020/12/25 13:04:17;;;;;;;9.90;7.03;;;5.40;5.30;;;;;;4875284;28;20185;-76
2020/12/25 13:06:40;;;;;;;9.63;7.00;;;4.90;2.60;;;;;;4877878;28;20197;-75
2020/12/25 13:09:05;;;;;;;15.40;11.93;;;5.20;1.00;;;;;;4878595;28;20606;-76
2020/12/25 13:11:29;;;;;;;25.90;18.93;;;5.00;7.00;;;;;;4881105;28;20187;-76
2020/12/25 13:13:52;;;;;;;28.77;18.37;;;4.90;10.80;;;;;;4858016;28;20600;-74
2020/12/25 13:16:21;;;;;;;19.07;14.70;;;4.90;18.10;;;;;;4859503;28;20640;-76
2020/12/25 13:18:44;;;;;;;18.50;13.53;;;;;;;;;;4859126;28;20252;-74
2020/12/25 13:21:07;;;;;;;21.17;13.73;;;;;;;;;;4861611;28;20189;-75